This is the latest recevied weather packets stored in our database for station/object N4ASP-13. If no packets are shown the sender has not sent any weather packets the latest 10 day(s).
| Time | Temp. | Humidity | Pressure | Rain* | Wind** | Luminosity | Snow |
|---|---|---|---|---|---|---|---|
| 1777549761 | 12.22° C | 78% | 1011.7 hPa | 0 mm | - | 33 W/m² | - |
| 1777549703 | 12.22° C | 78% | 1011.8 hPa | 0 mm | - | 35 W/m² | - |
| 1777549642 | 12.22° C | 79% | 1011.8 hPa | 0 mm | - | 37 W/m² | - |
| 1777549581 | 12.22° C | 78% | 1011.7 hPa | 0 mm | - | 37 W/m² | - |
| 1777549522 | 12.22° C | 78% | 1011.8 hPa | 0 mm | - | 40 W/m² | - |
| 1777549459 | 12.22° C | 78% | 1011.7 hPa | 0 mm | - | 40 W/m² | - |
| 1777549399 | 12.22° C | 78% | 1011.6 hPa | 0 mm | - | 40 W/m² | - |
| 1777549338 | 12.22° C | 77% | 1011.6 hPa | 0 mm | - | 40 W/m² | - |
| 1777549315 | 12.22° C | 78% | 1011.7 hPa | 0 mm | - | 40 W/m² | - |
| 1777549219 | 12.22° C | 78% | 1011.7 hPa | 0 mm | - | 39 W/m² | - |
| 1777549159 | 12.22° C | 78% | 1011.5 hPa | 0 mm | - | 33 W/m² | - |
| 1777549098 | 12.22° C | 78% | 1011.5 hPa | 0 mm | - | 30 W/m² | - |
| 1777549034 | 12.22° C | 78% | 1011.4 hPa | 0 mm | - | 28 W/m² | - |
| 1777548974 | 12.22° C | 78% | 1011.3 hPa | 0 mm | - | 28 W/m² | - |
| 1777548913 | 12.22° C | 78% | 1011.2 hPa | 0 mm | - | 26 W/m² | - |
| 1777548853 | 12.22° C | 78% | 1011.1 hPa | 0 mm | - | 25 W/m² | - |
| 1777548794 | 12.22° C | 78% | 1011 hPa | 0 mm | - | 23 W/m² | - |
| 1777548733 | 12.22° C | 78% | 1010.9 hPa | 0 mm | - | 21 W/m² | - |
| 1777548673 | 12.22° C | 78% | 1011 hPa | 0 mm | - | 21 W/m² | - |
| 1777548612 | 12.22° C | 78% | 1011.1 hPa | 0 mm | - | 19 W/m² | - |
| 1777548552 | 12.22° C | 78% | 1011 hPa | 0 mm | - | 19 W/m² | - |
| 1777548491 | 12.22° C | 78% | 1010.8 hPa | 0 mm | - | 19 W/m² | - |
| 1777548428 | 12.22° C | 78% | 1010.8 hPa | 0 mm | - | 19 W/m² | - |
| 1777548361 | 12.22° C | 78% | 1010.9 hPa | 0 mm | - | 21 W/m² | - |
| 1777548301 | 12.22° C | 78% | 1010.8 hPa | 0 mm | - | 21 W/m² | - |
* Rain latest hour (hover to see other rain measurements)
** Current wind speed in m/s (hover to see current wind gust speed)